sensor_id;sensor_type;location;lat;lon;timestamp;temperature;humidity
37322;DHT22;23697;48.684;9.032;2023-04-07T00:01:57;5.50;85.60
37322;DHT22;23697;48.684;9.032;2023-04-07T00:04:24;5.50;85.70
37322;DHT22;23697;48.684;9.032;2023-04-07T00:06:51;5.40;85.70
37322;DHT22;23697;48.684;9.032;2023-04-07T00:09:17;5.50;85.80
37322;DHT22;23697;48.684;9.032;2023-04-07T00:11:44;5.50;85.80
37322;DHT22;23697;48.684;9.032;2023-04-07T00:14:14;5.50;85.80
37322;DHT22;23697;48.684;9.032;2023-04-07T00:16:40;5.50;85.80
37322;DHT22;23697;48.684;9.032;2023-04-07T00:19:07;5.50;85.80
37322;DHT22;23697;48.684;9.032;2023-04-07T00:21:34;5.50;85.80
37322;DHT22;23697;48.684;9.032;2023-04-07T00:24:00;5.50;85.70
37322;DHT22;23697;48.684;9.032;2023-04-07T00:26:27;5.50;85.80
37322;DHT22;23697;48.684;9.032;2023-04-07T00:28:56;5.50;85.80
37322;DHT22;23697;48.684;9.032;2023-04-07T00:31:24;5.60;85.80
37322;DHT22;23697;48.684;9.032;2023-04-07T00:33:51;5.50;85.80
37322;DHT22;23697;48.684;9.032;2023-04-07T00:36:18;5.50;85.90
37322;DHT22;23697;48.684;9.032;2023-04-07T00:38:44;5.50;85.90
37322;DHT22;23697;48.684;9.032;2023-04-07T00:41:11;5.50;85.90
37322;DHT22;23697;48.684;9.032;2023-04-07T00:43:38;5.50;85.90
37322;DHT22;23697;48.684;9.032;2023-04-07T00:46:04;5.50;85.90
37322;DHT22;23697;48.684;9.032;2023-04-07T00:48:33;5.40;85.90
37322;DHT22;23697;48.684;9.032;2023-04-07T00:50:59;5.50;85.80
37322;DHT22;23697;48.684;9.032;2023-04-07T00:53:26;5.50;85.80
37322;DHT22;23697;48.684;9.032;2023-04-07T00:55:53;5.50;85.70
37322;DHT22;23697;48.684;9.032;2023-04-07T00:58:19;5.40;85.80
37322;DHT22;23697;48.684;9.032;2023-04-07T01:00:48;5.40;85.70
37322;DHT22;23697;48.684;9.032;2023-04-07T01:03:17;5.50;85.70
37322;DHT22;23697;48.684;9.032;2023-04-07T01:05:52;5.50;85.70
37322;DHT22;23697;48.684;9.032;2023-04-07T01:08:20;5.50;85.60
37322;DHT22;23697;48.684;9.032;2023-04-07T01:10:49;5.50;85.70
37322;DHT22;23697;48.684;9.032;2023-04-07T01:13:20;5.50;85.70
37322;DHT22;23697;48.684;9.032;2023-04-07T01:15:48;5.50;85.70
37322;DHT22;23697;48.684;9.032;2023-04-07T01:18:19;5.50;85.60
37322;DHT22;23697;48.684;9.032;2023-04-07T01:20:49;5.50;85.60
37322;DHT22;23697;48.684;9.032;2023-04-07T01:23:20;5.40;85.60
37322;DHT22;23697;48.684;9.032;2023-04-07T01:25:59;5.50;85.60
37322;DHT22;23697;48.684;9.032;2023-04-07T01:28:40;5.50;85.60
37322;DHT22;23697;48.684;9.032;2023-04-07T01:31:17;5.40;85.60
37322;DHT22;23697;48.684;9.032;2023-04-07T01:33:44;5.40;85.60
37322;DHT22;23697;48.684;9.032;2023-04-07T01:36:11;5.40;85.70
37322;DHT22;23697;48.684;9.032;2023-04-07T01:38:38;5.40;85.70
37322;DHT22;23697;48.684;9.032;2023-04-07T01:41:05;5.40;85.70
37322;DHT22;23697;48.684;9.032;2023-04-07T01:43:32;5.50;85.80
37322;DHT22;23697;48.684;9.032;2023-04-07T01:45:59;5.50;85.80
37322;DHT22;23697;48.684;9.032;2023-04-07T01:48:28;5.40;85.80
37322;DHT22;23697;48.684;9.032;2023-04-07T01:50:55;5.50;85.80
37322;DHT22;23697;48.684;9.032;2023-04-07T01:53:22;5.50;85.80
37322;DHT22;23697;48.684;9.032;2023-04-07T01:55:48;5.50;85.80
37322;DHT22;23697;48.684;9.032;2023-04-07T01:58:16;5.50;85.80
37322;DHT22;23697;48.684;9.032;2023-04-07T02:00:42;5.60;85.80
37322;DHT22;23697;48.684;9.032;2023-04-07T02:03:10;5.60;85.70
37322;DHT22;23697;48.684;9.032;2023-04-07T02:05:46;5.60;85.70
37322;DHT22;23697;48.684;9.032;2023-04-07T02:08:13;5.60;85.80
37322;DHT22;23697;48.684;9.032;2023-04-07T02:10:41;5.60;85.80
37322;DHT22;23697;48.684;9.032;2023-04-07T02:13:09;5.60;85.80
37322;DHT22;23697;48.684;9.032;2023-04-07T02:15:38;5.60;85.90
37322;DHT22;23697;48.684;9.032;2023-04-07T02:18:06;5.60;85.90
37322;DHT22;23697;48.684;9.032;2023-04-07T02:20:34;5.60;85.90
37322;DHT22;23697;48.684;9.032;2023-04-07T02:23:03;5.60;85.80
37322;DHT22;23697;48.684;9.032;2023-04-07T02:25:32;5.60;85.80
37322;DHT22;23697;48.684;9.032;2023-04-07T02:28:02;5.60;85.80
37322;DHT22;23697;48.684;9.032;2023-04-07T02:30:29;5.60;85.80
37322;DHT22;23697;48.684;9.032;2023-04-07T02:32:56;5.60;85.80
37322;DHT22;23697;48.684;9.032;2023-04-07T02:35:23;5.60;85.80
37322;DHT22;23697;48.684;9.032;2023-04-07T02:37:49;5.60;85.80
37322;DHT22;23697;48.684;9.032;2023-04-07T02:40:18;5.60;85.80
37322;DHT22;23697;48.684;9.032;2023-04-07T02:42:44;5.60;85.70
37322;DHT22;23697;48.684;9.032;2023-04-07T02:45:11;5.60;85.70
37322;DHT22;23697;48.684;9.032;2023-04-07T02:47:38;5.60;85.60
37322;DHT22;23697;48.684;9.032;2023-04-07T02:50:05;5.60;85.60
37322;DHT22;23697;48.684;9.032;2023-04-07T02:52:32;5.60;85.40
37322;DHT22;23697;48.684;9.032;2023-04-07T02:54:59;5.60;85.40
37322;DHT22;23697;48.684;9.032;2023-04-07T02:57:27;5.60;85.40
37322;DHT22;23697;48.684;9.032;2023-04-07T02:59:54;5.60;85.40
37322;DHT22;23697;48.684;9.032;2023-04-07T03:02:22;5.60;85.30
37322;DHT22;23697;48.684;9.032;2023-04-07T03:04:49;5.60;85.30
37322;DHT22;23697;48.684;9.032;2023-04-07T03:07:16;5.60;85.40
37322;DHT22;23697;48.684;9.032;2023-04-07T03:09:43;5.60;85.30
37322;DHT22;23697;48.684;9.032;2023-04-07T03:12:09;5.60;85.30
37322;DHT22;23697;48.684;9.032;2023-04-07T03:14:37;5.60;85.30
37322;DHT22;23697;48.684;9.032;2023-04-07T03:17:04;5.60;85.30
37322;DHT22;23697;48.684;9.032;2023-04-07T03:19:31;5.60;85.30
37322;DHT22;23697;48.684;9.032;2023-04-07T03:21:57;5.60;85.20
37322;DHT22;23697;48.684;9.032;2023-04-07T03:24:24;5.60;85.00
37322;DHT22;23697;48.684;9.032;2023-04-07T03:26:51;5.60;85.00
37322;DHT22;23697;48.684;9.032;2023-04-07T03:29:18;5.50;85.00
37322;DHT22;23697;48.684;9.032;2023-04-07T03:31:46;5.50;85.00
37322;DHT22;23697;48.684;9.032;2023-04-07T03:34:12;5.50;85.10
37322;DHT22;23697;48.684;9.032;2023-04-07T03:36:39;5.50;85.20
37322;DHT22;23697;48.684;9.032;2023-04-07T03:39:06;5.50;85.20
37322;DHT22;23697;48.684;9.032;2023-04-07T03:41:33;5.40;85.20
37322;DHT22;23697;48.684;9.032;2023-04-07T03:44:00;5.50;85.20
37322;DHT22;23697;48.684;9.032;2023-04-07T03:46:27;5.50;85.20
37322;DHT22;23697;48.684;9.032;2023-04-07T03:48:55;5.50;85.20
37322;DHT22;23697;48.684;9.032;2023-04-07T03:51:21;5.40;85.20
37322;DHT22;23697;48.684;9.032;2023-04-07T03:53:48;5.50;85.20
37322;DHT22;23697;48.684;9.032;2023-04-07T03:56:15;5.40;85.20
37322;DHT22;23697;48.684;9.032;2023-04-07T03:58:41;5.40;85.30
37322;DHT22;23697;48.684;9.032;2023-04-07T04:01:08;5.40;85.30
37322;DHT22;23697;48.684;9.032;2023-04-07T04:03:35;5.40;85.30
37322;DHT22;23697;48.684;9.032;2023-04-07T04:06:03;5.40;85.30
37322;DHT22;23697;48.684;9.032;2023-04-07T04:08:30;5.40;85.30
37322;DHT22;23697;48.684;9.032;2023-04-07T04:10:57;5.30;85.20
37322;DHT22;23697;48.684;9.032;2023-04-07T04:13:23;5.30;85.30
37322;DHT22;23697;48.684;9.032;2023-04-07T04:15:50;5.30;85.30
37322;DHT22;23697;48.684;9.032;2023-04-07T04:18:17;5.30;85.30
37322;DHT22;23697;48.684;9.032;2023-04-07T04:20:44;5.30;85.30
37322;DHT22;23697;48.684;9.032;2023-04-07T04:23:13;5.30;85.20
37322;DHT22;23697;48.684;9.032;2023-04-07T04:25:40;5.30;85.20
37322;DHT22;23697;48.684;9.032;2023-04-07T04:28:06;5.40;85.10
37322;DHT22;23697;48.684;9.032;2023-04-07T04:30:33;5.30;85.10
37322;DHT22;23697;48.684;9.032;2023-04-07T04:33:00;5.30;85.20
37322;DHT22;23697;48.684;9.032;2023-04-07T04:35:27;5.30;85.20
37322;DHT22;23697;48.684;9.032;2023-04-07T04:37:54;5.30;85.30
37322;DHT22;23697;48.684;9.032;2023-04-07T04:40:22;5.20;85.40
37322;DHT22;23697;48.684;9.032;2023-04-07T04:42:48;5.20;85.50
37322;DHT22;23697;48.684;9.032;2023-04-07T04:45:15;5.20;85.60
37322;DHT22;23697;48.684;9.032;2023-04-07T04:47:42;5.20;85.70
37322;DHT22;23697;48.684;9.032;2023-04-07T04:50:09;5.20;85.70
37322;DHT22;23697;48.684;9.032;2023-04-07T04:52:36;5.20;85.70
37322;DHT22;23697;48.684;9.032;2023-04-07T04:55:03;5.20;85.70
37322;DHT22;23697;48.684;9.032;2023-04-07T04:57:32;5.20;85.70
37322;DHT22;23697;48.684;9.032;2023-04-07T05:00:00;5.20;85.70
37322;DHT22;23697;48.684;9.032;2023-04-07T05:02:27;5.20;85.70
37322;DHT22;23697;48.684;9.032;2023-04-07T05:04:53;5.20;85.70
37322;DHT22;23697;48.684;9.032;2023-04-07T05:07:20;5.20;85.70
37322;DHT22;23697;48.684;9.032;2023-04-07T05:09:47;5.30;85.70
37322;DHT22;23697;48.684;9.032;2023-04-07T05:12:13;5.20;85.70
37322;DHT22;23697;48.684;9.032;2023-04-07T05:14:41;5.20;85.80
37322;DHT22;23697;48.684;9.032;2023-04-07T05:17:08;5.30;85.80
37322;DHT22;23697;48.684;9.032;2023-04-07T05:19:35;5.30;85.80
37322;DHT22;23697;48.684;9.032;2023-04-07T05:22:02;5.30;85.90
37322;DHT22;23697;48.684;9.032;2023-04-07T05:24:28;5.30;86.00
37322;DHT22;23697;48.684;9.032;2023-04-07T05:26:55;5.30;86.10
37322;DHT22;23697;48.684;9.032;2023-04-07T05:29:22;5.30;86.10
37322;DHT22;23697;48.684;9.032;2023-04-07T05:31:50;5.40;86.10
37322;DHT22;23697;48.684;9.032;2023-04-07T05:34:17;5.40;86.00
37322;DHT22;23697;48.684;9.032;2023-04-07T05:36:43;5.40;86.00
37322;DHT22;23697;48.684;9.032;2023-04-07T05:39:10;5.50;86.00
37322;DHT22;23697;48.684;9.032;2023-04-07T05:41:38;5.50;85.90
37322;DHT22;23697;48.684;9.032;2023-04-07T05:44:05;5.60;85.90
37322;DHT22;23697;48.684;9.032;2023-04-07T05:46:33;5.70;85.80
37322;DHT22;23697;48.684;9.032;2023-04-07T05:49:01;5.70;85.70
37322;DHT22;23697;48.684;9.032;2023-04-07T05:51:28;5.70;85.70
37322;DHT22;23697;48.684;9.032;2023-04-07T05:53:55;5.80;85.70
37322;DHT22;23697;48.684;9.032;2023-04-07T05:56:22;5.80;85.60
37322;DHT22;23697;48.684;9.032;2023-04-07T05:58:49;5.80;85.30
37322;DHT22;23697;48.684;9.032;2023-04-07T06:01:18;5.90;85.20
37322;DHT22;23697;48.684;9.032;2023-04-07T06:03:44;5.90;85.20
37322;DHT22;23697;48.684;9.032;2023-04-07T06:09:02;6.00;85.10
37322;DHT22;23697;48.684;9.032;2023-04-07T06:11:29;6.10;85.10
37322;DHT22;23697;48.684;9.032;2023-04-07T06:13:56;6.10;85.00
37322;DHT22;23697;48.684;9.032;2023-04-07T06:16:23;6.10;85.00
37322;DHT22;23697;48.684;9.032;2023-04-07T06:18:49;6.20;84.40
37322;DHT22;23697;48.684;9.032;2023-04-07T06:21:16;6.20;84.10
37322;DHT22;23697;48.684;9.032;2023-04-07T06:23:43;6.30;83.90
37322;DHT22;23697;48.684;9.032;2023-04-07T06:26:11;6.20;83.60
37322;DHT22;23697;48.684;9.032;2023-04-07T06:28:38;6.30;83.40
37322;DHT22;23697;48.684;9.032;2023-04-07T06:31:04;6.40;83.60
37322;DHT22;23697;48.684;9.032;2023-04-07T06:33:31;6.40;83.60
37322;DHT22;23697;48.684;9.032;2023-04-07T06:35:58;6.50;83.40
37322;DHT22;23697;48.684;9.032;2023-04-07T06:38:25;6.50;83.40
37322;DHT22;23697;48.684;9.032;2023-04-07T06:40:51;6.60;83.20
37322;DHT22;23697;48.684;9.032;2023-04-07T06:43:19;6.60;82.90
37322;DHT22;23697;48.684;9.032;2023-04-07T06:45:46;6.70;82.80
37322;DHT22;23697;48.684;9.032;2023-04-07T06:48:13;6.70;82.80
37322;DHT22;23697;48.684;9.032;2023-04-07T06:50:39;6.70;82.80
37322;DHT22;23697;48.684;9.032;2023-04-07T06:53:06;6.80;82.60
37322;DHT22;23697;48.684;9.032;2023-04-07T06:55:33;6.90;82.50
37322;DHT22;23697;48.684;9.032;2023-04-07T06:58:00;6.90;82.30
37322;DHT22;23697;48.684;9.032;2023-04-07T07:00:28;6.90;82.30
37322;DHT22;23697;48.684;9.032;2023-04-07T07:02:55;7.00;81.90
37322;DHT22;23697;48.684;9.032;2023-04-07T07:05:25;7.10;81.50
37322;DHT22;23697;48.684;9.032;2023-04-07T07:07:51;7.10;81.10
37322;DHT22;23697;48.684;9.032;2023-04-07T07:10:18;7.10;80.80
37322;DHT22;23697;48.684;9.032;2023-04-07T07:12:46;7.20;80.60
37322;DHT22;23697;48.684;9.032;2023-04-07T07:15:13;7.30;80.60
37322;DHT22;23697;48.684;9.032;2023-04-07T07:17:41;7.40;80.60
37322;DHT22;23697;48.684;9.032;2023-04-07T07:20:08;7.50;79.90
37322;DHT22;23697;48.684;9.032;2023-04-07T07:25:45;7.60;79.90
37322;DHT22;23697;48.684;9.032;2023-04-07T07:28:12;7.50;79.90
37322;DHT22;23697;48.684;9.032;2023-04-07T07:30:38;7.40;79.90
37322;DHT22;23697;48.684;9.032;2023-04-07T07:36:42;7.60;79.90
37322;DHT22;23697;48.684;9.032;2023-04-07T07:39:51;7.60;79.30
37322;DHT22;23697;48.684;9.032;2023-04-07T08:10:16;11.40;70.00
37322;DHT22;23697;48.684;9.032;2023-04-07T08:12:44;11.20;68.80
37322;DHT22;23697;48.684;9.032;2023-04-07T08:15:11;11.40;70.90
37322;DHT22;23697;48.684;9.032;2023-04-07T08:17:38;11.70;68.80
37322;DHT22;23697;48.684;9.032;2023-04-07T08:20:05;12.10;69.80
37322;DHT22;23697;48.684;9.032;2023-04-07T08:22:32;12.50;69.40
37322;DHT22;23697;48.684;9.032;2023-04-07T08:24:59;12.80;68.60
37322;DHT22;23697;48.684;9.032;2023-04-07T08:27:27;13.20;66.50
37322;DHT22;23697;48.684;9.032;2023-04-07T08:29:58;13.50;62.50
37322;DHT22;23697;48.684;9.032;2023-04-07T08:32:24;13.60;61.60
37322;DHT22;23697;48.684;9.032;2023-04-07T08:34:54;13.60;59.20
37322;DHT22;23697;48.684;9.032;2023-04-07T08:37:21;13.60;59.60
37322;DHT22;23697;48.684;9.032;2023-04-07T08:39:48;13.30;62.50
37322;DHT22;23697;48.684;9.032;2023-04-07T08:42:14;12.90;62.30
37322;DHT22;23697;48.684;9.032;2023-04-07T08:44:43;12.50;61.70
37322;DHT22;23697;48.684;9.032;2023-04-07T08:47:12;12.00;62.20
37322;DHT22;23697;48.684;9.032;2023-04-07T08:49:40;11.60;63.50
37322;DHT22;23697;48.684;9.032;2023-04-07T08:52:10;11.20;64.10
37322;DHT22;23697;48.684;9.032;2023-04-07T08:54:40;11.10;65.00
37322;DHT22;23697;48.684;9.032;2023-04-07T08:57:07;10.80;65.20
37322;DHT22;23697;48.684;9.032;2023-04-07T08:59:34;10.90;66.40
37322;DHT22;23697;48.684;9.032;2023-04-07T09:02:03;11.40;65.30
37322;DHT22;23697;48.684;9.032;2023-04-07T09:04:33;11.90;64.60
37322;DHT22;23697;48.684;9.032;2023-04-07T09:07:00;12.00;64.10
37322;DHT22;23697;48.684;9.032;2023-04-07T09:09:26;12.20;64.60
37322;DHT22;23697;48.684;9.032;2023-04-07T09:11:53;12.00;60.90
37322;DHT22;23697;48.684;9.032;2023-04-07T09:14:26;11.80;62.50
37322;DHT22;23697;48.684;9.032;2023-04-07T09:16:53;11.90;64.00
37322;DHT22;23697;48.684;9.032;2023-04-07T09:19:22;12.10;64.10
37322;DHT22;23697;48.684;9.032;2023-04-07T09:21:50;12.70;62.70
37322;DHT22;23697;48.684;9.032;2023-04-07T09:24:21;13.00;59.80
37322;DHT22;23697;48.684;9.032;2023-04-07T09:26:48;13.20;61.30
37322;DHT22;23697;48.684;9.032;2023-04-07T09:29:17;13.50;59.10
37322;DHT22;23697;48.684;9.032;2023-04-07T09:31:45;13.80;58.40
37322;DHT22;23697;48.684;9.032;2023-04-07T09:34:23;14.10;55.50
37322;DHT22;23697;48.684;9.032;2023-04-07T09:36:50;14.30;54.80
37322;DHT22;23697;48.684;9.032;2023-04-07T09:39:17;13.90;54.70
37322;DHT22;23697;48.684;9.032;2023-04-07T09:41:46;13.80;56.60
37322;DHT22;23697;48.684;9.032;2023-04-07T09:44:12;13.90;57.70
37322;DHT22;23697;48.684;9.032;2023-04-07T09:46:47;13.90;56.40
37322;DHT22;23697;48.684;9.032;2023-04-07T09:49:13;14.20;58.60
37322;DHT22;23697;48.684;9.032;2023-04-07T09:51:52;14.10;57.70
37322;DHT22;23697;48.684;9.032;2023-04-07T09:54:30;14.00;57.90
37322;DHT22;23697;48.684;9.032;2023-04-07T09:56:57;14.10;58.60
37322;DHT22;23697;48.684;9.032;2023-04-07T09:59:25;14.30;58.60
37322;DHT22;23697;48.684;9.032;2023-04-07T10:01:53;14.10;56.40
37322;DHT22;23697;48.684;9.032;2023-04-07T10:04:20;14.00;55.20
37322;DHT22;23697;48.684;9.032;2023-04-07T10:06:47;13.70;56.40
37322;DHT22;23697;48.684;9.032;2023-04-07T10:09:16;13.40;58.40
37322;DHT22;23697;48.684;9.032;2023-04-07T10:11:43;13.10;59.20
37322;DHT22;23697;48.684;9.032;2023-04-07T10:14:10;13.10;58.90
37322;DHT22;23697;48.684;9.032;2023-04-07T10:16:37;13.00;59.40
37322;DHT22;23697;48.684;9.032;2023-04-07T10:19:04;13.00;58.50
37322;DHT22;23697;48.684;9.032;2023-04-07T10:21:31;12.90;58.20
37322;DHT22;23697;48.684;9.032;2023-04-07T10:24:03;12.60;59.80
37322;DHT22;23697;48.684;9.032;2023-04-07T10:26:36;12.10;61.30
37322;DHT22;23697;48.684;9.032;2023-04-07T10:29:05;11.60;63.00
37322;DHT22;23697;48.684;9.032;2023-04-07T10:31:33;11.00;64.90
37322;DHT22;23697;48.684;9.032;2023-04-07T10:34:00;10.60;68.00
37322;DHT22;23697;48.684;9.032;2023-04-07T10:36:28;10.30;68.70
37322;DHT22;23697;48.684;9.032;2023-04-07T10:41:53;9.60;73.50
37322;DHT22;23697;48.684;9.032;2023-04-07T10:44:43;9.30;75.30
37322;DHT22;23697;48.684;9.032;2023-04-07T10:47:11;9.20;76.60
37322;DHT22;23697;48.684;9.032;2023-04-07T10:49:38;9.00;78.00
37322;DHT22;23697;48.684;9.032;2023-04-07T10:52:20;8.80;78.90
37322;DHT22;23697;48.684;9.032;2023-04-07T10:54:47;8.60;79.70
37322;DHT22;23697;48.684;9.032;2023-04-07T10:57:35;8.60;80.70
37322;DHT22;23697;48.684;9.032;2023-04-07T11:02:49;8.70;82.00
37322;DHT22;23697;48.684;9.032;2023-04-07T11:05:19;8.70;81.60
37322;DHT22;23697;48.684;9.032;2023-04-07T11:07:47;8.70;81.90
37322;DHT22;23697;48.684;9.032;2023-04-07T11:10:15;8.60;81.10
37322;DHT22;23697;48.684;9.032;2023-04-07T11:12:45;8.60;81.40
37322;DHT22;23697;48.684;9.032;2023-04-07T11:15:23;8.60;81.50
37322;DHT22;23697;48.684;9.032;2023-04-07T11:18:06;8.50;81.70
37322;DHT22;23697;48.684;9.032;2023-04-07T11:20:40;8.40;82.00
37322;DHT22;23697;48.684;9.032;2023-04-07T11:23:07;8.40;83.30
37322;DHT22;23697;48.684;9.032;2023-04-07T11:25:33;8.40;84.00
37322;DHT22;23697;48.684;9.032;2023-04-07T11:28:03;8.50;84.40
37322;DHT22;23697;48.684;9.032;2023-04-07T11:30:31;8.50;84.80
37322;DHT22;23697;48.684;9.032;2023-04-07T11:32:58;8.50;85.20
37322;DHT22;23697;48.684;9.032;2023-04-07T11:35:25;8.60;85.40
37322;DHT22;23697;48.684;9.032;2023-04-07T11:37:56;8.60;85.60
37322;DHT22;23697;48.684;9.032;2023-04-07T11:40:32;8.60;85.70
37322;DHT22;23697;48.684;9.032;2023-04-07T11:42:59;8.60;85.70
37322;DHT22;23697;48.684;9.032;2023-04-07T11:45:28;8.60;85.60
37322;DHT22;23697;48.684;9.032;2023-04-07T11:47:55;8.60;85.60
37322;DHT22;23697;48.684;9.032;2023-04-07T11:50:37;8.60;85.60
37322;DHT22;23697;48.684;9.032;2023-04-07T11:53:04;8.50;85.70
37322;DHT22;23697;48.684;9.032;2023-04-07T11:55:30;8.50;85.70
37322;DHT22;23697;48.684;9.032;2023-04-07T11:58:04;8.50;85.70
37322;DHT22;23697;48.684;9.032;2023-04-07T12:00:32;8.40;85.40
37322;DHT22;23697;48.684;9.032;2023-04-07T12:03:07;8.40;85.80
37322;DHT22;23697;48.684;9.032;2023-04-07T12:05:40;8.40;85.80
37322;DHT22;23697;48.684;9.032;2023-04-07T12:08:07;8.50;85.90
37322;DHT22;23697;48.684;9.032;2023-04-07T12:10:34;8.50;86.00
37322;DHT22;23697;48.684;9.032;2023-04-07T12:13:00;8.60;86.00
37322;DHT22;23697;48.684;9.032;2023-04-07T12:15:27;8.40;85.50
37322;DHT22;23697;48.684;9.032;2023-04-07T12:17:55;8.20;85.80
37322;DHT22;23697;48.684;9.032;2023-04-07T12:20:22;8.20;86.40
37322;DHT22;23697;48.684;9.032;2023-04-07T12:22:48;8.30;86.70
37322;DHT22;23697;48.684;9.032;2023-04-07T12:25:15;8.40;86.80
37322;DHT22;23697;48.684;9.032;2023-04-07T12:27:42;8.50;86.80
37322;DHT22;23697;48.684;9.032;2023-04-07T12:30:09;8.60;86.80
37322;DHT22;23697;48.684;9.032;2023-04-07T12:32:36;8.80;86.80
37322;DHT22;23697;48.684;9.032;2023-04-07T12:35:05;8.90;86.50
37322;DHT22;23697;48.684;9.032;2023-04-07T12:37:32;8.90;86.10
37322;DHT22;23697;48.684;9.032;2023-04-07T12:39:58;8.90;85.40
37322;DHT22;23697;48.684;9.032;2023-04-07T12:42:25;8.90;85.00
37322;DHT22;23697;48.684;9.032;2023-04-07T12:44:52;8.80;85.40
37322;DHT22;23697;48.684;9.032;2023-04-07T12:47:18;8.70;85.30
37322;DHT22;23697;48.684;9.032;2023-04-07T12:49:45;8.60;84.90
37322;DHT22;23697;48.684;9.032;2023-04-07T12:52:13;8.50;85.00
37322;DHT22;23697;48.684;9.032;2023-04-07T12:54:40;8.50;85.30
37322;DHT22;23697;48.684;9.032;2023-04-07T12:57:08;8.30;85.40
37322;DHT22;23697;48.684;9.032;2023-04-07T12:59:35;8.30;85.60
37322;DHT22;23697;48.684;9.032;2023-04-07T13:02:02;8.20;85.70
37322;DHT22;23697;48.684;9.032;2023-04-07T13:04:28;8.10;85.60
37322;DHT22;23697;48.684;9.032;2023-04-07T13:06:55;8.10;86.00
37322;DHT22;23697;48.684;9.032;2023-04-07T13:09:24;8.10;86.00
37322;DHT22;23697;48.684;9.032;2023-04-07T13:11:50;8.20;85.80
37322;DHT22;23697;48.684;9.032;2023-04-07T13:14:17;8.30;85.90
37322;DHT22;23697;48.684;9.032;2023-04-07T13:16:43;8.40;86.10
37322;DHT22;23697;48.684;9.032;2023-04-07T13:19:10;8.30;86.00
37322;DHT22;23697;48.684;9.032;2023-04-07T13:21:37;8.40;85.60
37322;DHT22;23697;48.684;9.032;2023-04-07T13:24:04;8.40;85.70
37322;DHT22;23697;48.684;9.032;2023-04-07T13:26:33;8.50;85.70
37322;DHT22;23697;48.684;9.032;2023-04-07T13:29:00;8.50;85.60
37322;DHT22;23697;48.684;9.032;2023-04-07T13:31:26;8.50;85.40
37322;DHT22;23697;48.684;9.032;2023-04-07T13:33:53;8.60;85.40
37322;DHT22;23697;48.684;9.032;2023-04-07T13:36:20;8.50;85.40
37322;DHT22;23697;48.684;9.032;2023-04-07T13:38:46;8.40;85.00
37322;DHT22;23697;48.684;9.032;2023-04-07T13:41:13;8.50;85.20
37322;DHT22;23697;48.684;9.032;2023-04-07T13:43:41;8.50;85.30
37322;DHT22;23697;48.684;9.032;2023-04-07T13:46:07;8.60;85.50
37322;DHT22;23697;48.684;9.032;2023-04-07T13:48:39;8.70;86.00
37322;DHT22;23697;48.684;9.032;2023-04-07T13:51:06;8.90;86.30
37322;DHT22;23697;48.684;9.032;2023-04-07T13:53:33;9.00;86.40
37322;DHT22;23697;48.684;9.032;2023-04-07T13:55:59;9.10;86.40
37322;DHT22;23697;48.684;9.032;2023-04-07T13:58:27;9.00;86.20
37322;DHT22;23697;48.684;9.032;2023-04-07T14:00:55;9.10;86.10
37322;DHT22;23697;48.684;9.032;2023-04-07T14:03:23;9.00;85.60
37322;DHT22;23697;48.684;9.032;2023-04-07T14:05:49;9.00;85.70
37322;DHT22;23697;48.684;9.032;2023-04-07T14:08:16;9.00;85.90
37322;DHT22;23697;48.684;9.032;2023-04-07T14:10:43;9.10;86.20
37322;DHT22;23697;48.684;9.032;2023-04-07T14:13:10;9.10;86.20
37322;DHT22;23697;48.684;9.032;2023-04-07T14:15:36;9.10;86.30
37322;DHT22;23697;48.684;9.032;2023-04-07T14:18:04;9.20;86.30
37322;DHT22;23697;48.684;9.032;2023-04-07T14:20:31;9.30;86.40
37322;DHT22;23697;48.684;9.032;2023-04-07T14:22:58;9.30;86.40
37322;DHT22;23697;48.684;9.032;2023-04-07T14:25:24;9.30;86.30
37322;DHT22;23697;48.684;9.032;2023-04-07T14:27:51;9.40;86.30
37322;DHT22;23697;48.684;9.032;2023-04-07T14:30:18;9.40;86.30
37322;DHT22;23697;48.684;9.032;2023-04-07T14:32:44;9.30;86.20
37322;DHT22;23697;48.684;9.032;2023-04-07T14:35:13;9.30;86.00
37322;DHT22;23697;48.684;9.032;2023-04-07T14:37:39;9.20;85.50
37322;DHT22;23697;48.684;9.032;2023-04-07T14:40:07;9.20;85.20
37322;DHT22;23697;48.684;9.032;2023-04-07T14:42:33;9.20;85.20
37322;DHT22;23697;48.684;9.032;2023-04-07T14:45:01;9.20;84.50
37322;DHT22;23697;48.684;9.032;2023-04-07T14:47:28;9.10;83.70
37322;DHT22;23697;48.684;9.032;2023-04-07T14:49:55;9.10;83.80
37322;DHT22;23697;48.684;9.032;2023-04-07T14:52:23;9.10;84.10
37322;DHT22;23697;48.684;9.032;2023-04-07T14:54:50;9.10;84.40
37322;DHT22;23697;48.684;9.032;2023-04-07T14:57:17;9.10;84.30
37322;DHT22;23697;48.684;9.032;2023-04-07T14:59:44;9.10;84.40
37322;DHT22;23697;48.684;9.032;2023-04-07T15:02:10;9.10;84.40
37322;DHT22;23697;48.684;9.032;2023-04-07T15:04:37;9.00;83.80
37322;DHT22;23697;48.684;9.032;2023-04-07T15:07:04;9.10;84.10
37322;DHT22;23697;48.684;9.032;2023-04-07T15:09:32;9.10;84.00
37322;DHT22;23697;48.684;9.032;2023-04-07T15:11:58;9.10;83.80
37322;DHT22;23697;48.684;9.032;2023-04-07T15:14:26;9.10;83.90
37322;DHT22;23697;48.684;9.032;2023-04-07T15:16:53;9.10;84.10
37322;DHT22;23697;48.684;9.032;2023-04-07T15:19:19;9.10;83.90
37322;DHT22;23697;48.684;9.032;2023-04-07T15:21:46;9.10;84.00
37322;DHT22;23697;48.684;9.032;2023-04-07T15:24:13;9.20;84.10
37322;DHT22;23697;48.684;9.032;2023-04-07T15:26:41;9.20;84.20
37322;DHT22;23697;48.684;9.032;2023-04-07T15:29:08;9.30;84.40
37322;DHT22;23697;48.684;9.032;2023-04-07T15:31:35;9.30;83.90
37322;DHT22;23697;48.684;9.032;2023-04-07T15:34:02;9.30;83.50
37322;DHT22;23697;48.684;9.032;2023-04-07T15:36:28;9.30;83.20
37322;DHT22;23697;48.684;9.032;2023-04-07T15:38:55;9.30;82.70
37322;DHT22;23697;48.684;9.032;2023-04-07T15:41:22;9.40;83.10
37322;DHT22;23697;48.684;9.032;2023-04-07T15:43:50;9.40;82.80
37322;DHT22;23697;48.684;9.032;2023-04-07T15:46:16;9.50;83.20
37322;DHT22;23697;48.684;9.032;2023-04-07T15:48:45;9.50;83.60
37322;DHT22;23697;48.684;9.032;2023-04-07T15:51:12;9.60;83.90
37322;DHT22;23697;48.684;9.032;2023-04-07T15:53:39;9.60;84.30
37322;DHT22;23697;48.684;9.032;2023-04-07T15:56:05;9.60;84.30
37322;DHT22;23697;48.684;9.032;2023-04-07T15:58:32;9.60;84.00
37322;DHT22;23697;48.684;9.032;2023-04-07T16:01:00;9.70;83.90
37322;DHT22;23697;48.684;9.032;2023-04-07T16:03:27;9.70;84.20
37322;DHT22;23697;48.684;9.032;2023-04-07T16:05:53;9.80;84.40
37322;DHT22;23697;48.684;9.032;2023-04-07T16:08:20;9.80;83.60
37322;DHT22;23697;48.684;9.032;2023-04-07T16:10:47;9.80;83.50
37322;DHT22;23697;48.684;9.032;2023-04-07T16:13:13;9.80;83.80
37322;DHT22;23697;48.684;9.032;2023-04-07T16:15:40;9.80;84.10
37322;DHT22;23697;48.684;9.032;2023-04-07T16:18:09;9.80;84.10
37322;DHT22;23697;48.684;9.032;2023-04-07T16:20:35;9.70;84.10
37322;DHT22;23697;48.684;9.032;2023-04-07T16:23:02;9.70;84.30
37322;DHT22;23697;48.684;9.032;2023-04-07T16:25:29;9.60;84.50
37322;DHT22;23697;48.684;9.032;2023-04-07T16:27:56;9.60;84.50
37322;DHT22;23697;48.684;9.032;2023-04-07T16:30:22;9.70;84.60
37322;DHT22;23697;48.684;9.032;2023-04-07T16:32:49;9.80;84.70